sensor_id;sensor_type;location;lat;lon;timestamp;P1;durP1;ratioP1;P2;durP2;ratioP2
26106;SDS011;13866;50.748;12.630;2023-05-14T00:00:59;21.37;;;7.40;;
26106;SDS011;13866;50.748;12.630;2023-05-14T00:03:24;7.40;;;7.10;;
26106;SDS011;13866;50.748;12.630;2023-05-14T00:05:50;8.30;;;7.67;;
26106;SDS011;13866;50.748;12.630;2023-05-14T00:08:16;8.77;;;8.23;;
26106;SDS011;13866;50.748;12.630;2023-05-14T00:10:41;9.97;;;9.27;;
26106;SDS011;13866;50.748;12.630;2023-05-14T00:13:07;9.00;;;8.30;;
26106;SDS011;13866;50.748;12.630;2023-05-14T00:15:32;9.53;;;8.83;;
26106;SDS011;13866;50.748;12.630;2023-05-14T00:17:57;10.67;;;9.93;;
26106;SDS011;13866;50.748;12.630;2023-05-14T00:20:23;13.43;;;12.03;;
26106;SDS011;13866;50.748;12.630;2023-05-14T00:22:48;22.23;;;12.67;;
26106;SDS011;13866;50.748;12.630;2023-05-14T00:25:14;11.80;;;10.90;;
26106;SDS011;13866;50.748;12.630;2023-05-14T00:27:39;12.60;;;11.40;;
26106;SDS011;13866;50.748;12.630;2023-05-14T00:30:05;11.30;;;10.17;;
26106;SDS011;13866;50.748;12.630;2023-05-14T00:32:31;10.87;;;9.93;;
26106;SDS011;13866;50.748;12.630;2023-05-14T00:34:57;9.10;;;8.50;;
26106;SDS011;13866;50.748;12.630;2023-05-14T00:37:22;8.43;;;7.83;;
26106;SDS011;13866;50.748;12.630;2023-05-14T00:39:48;10.80;;;9.80;;
26106;SDS011;13866;50.748;12.630;2023-05-14T00:42:13;7.60;;;7.30;;
26106;SDS011;13866;50.748;12.630;2023-05-14T00:44:39;7.57;;;7.27;;
26106;SDS011;13866;50.748;12.630;2023-05-14T00:47:04;9.50;;;9.00;;
26106;SDS011;13866;50.748;12.630;2023-05-14T00:49:30;8.77;;;8.37;;
26106;SDS011;13866;50.748;12.630;2023-05-14T00:51:56;8.80;;;8.20;;
26106;SDS011;13866;50.748;12.630;2023-05-14T00:54:24;8.83;;;8.33;;
26106;SDS011;13866;50.748;12.630;2023-05-14T00:56:50;9.60;;;8.73;;
26106;SDS011;13866;50.748;12.630;2023-05-14T00:59:16;9.00;;;8.30;;
26106;SDS011;13866;50.748;12.630;2023-05-14T01:01:42;8.33;;;8.07;;
26106;SDS011;13866;50.748;12.630;2023-05-14T01:04:07;8.40;;;8.00;;
26106;SDS011;13866;50.748;12.630;2023-05-14T01:06:49;9.50;;;8.57;;
26106;SDS011;13866;50.748;12.630;2023-05-14T01:09:29;10.20;;;9.70;;
26106;SDS011;13866;50.748;12.630;2023-05-14T01:14:38;10.23;;;9.30;;
26106;SDS011;13866;50.748;12.630;2023-05-14T01:17:05;8.80;;;8.30;;
26106;SDS011;13866;50.748;12.630;2023-05-14T01:19:41;8.13;;;7.70;;
26106;SDS011;13866;50.748;12.630;2023-05-14T01:22:08;8.70;;;8.20;;
26106;SDS011;13866;50.748;12.630;2023-05-14T01:24:34;8.10;;;7.80;;
26106;SDS011;13866;50.748;12.630;2023-05-14T01:32:38;9.33;;;8.87;;
26106;SDS011;13866;50.748;12.630;2023-05-14T01:35:04;9.00;;;8.40;;
26106;SDS011;13866;50.748;12.630;2023-05-14T01:37:31;9.53;;;8.70;;
26106;SDS011;13866;50.748;12.630;2023-05-14T01:39:57;8.53;;;8.10;;
26106;SDS011;13866;50.748;12.630;2023-05-14T01:42:24;10.00;;;9.33;;
26106;SDS011;13866;50.748;12.630;2023-05-14T01:44:50;8.77;;;8.00;;
26106;SDS011;13866;50.748;12.630;2023-05-14T01:47:15;7.87;;;7.57;;
26106;SDS011;13866;50.748;12.630;2023-05-14T01:49:41;9.90;;;9.10;;
26106;SDS011;13866;50.748;12.630;2023-05-14T01:52:06;8.53;;;7.93;;
26106;SDS011;13866;50.748;12.630;2023-05-14T01:54:32;8.83;;;8.33;;
26106;SDS011;13866;50.748;12.630;2023-05-14T01:56:58;8.70;;;8.30;;
26106;SDS011;13866;50.748;12.630;2023-05-14T01:59:23;9.20;;;8.60;;
26106;SDS011;13866;50.748;12.630;2023-05-14T02:01:49;8.90;;;8.30;;
26106;SDS011;13866;50.748;12.630;2023-05-14T02:04:14;10.40;;;9.80;;
26106;SDS011;13866;50.748;12.630;2023-05-14T02:06:40;10.00;;;9.17;;
26106;SDS011;13866;50.748;12.630;2023-05-14T02:09:05;8.23;;;7.93;;
26106;SDS011;13866;50.748;12.630;2023-05-14T02:11:30;9.33;;;8.73;;
26106;SDS011;13866;50.748;12.630;2023-05-14T02:13:56;9.40;;;9.00;;
26106;SDS011;13866;50.748;12.630;2023-05-14T02:16:21;9.43;;;9.03;;
26106;SDS011;13866;50.748;12.630;2023-05-14T02:18:47;9.20;;;8.77;;
26106;SDS011;13866;50.748;12.630;2023-05-14T02:21:12;9.80;;;9.20;;
26106;SDS011;13866;50.748;12.630;2023-05-14T02:23:38;9.93;;;9.33;;
26106;SDS011;13866;50.748;12.630;2023-05-14T02:26:03;9.90;;;9.30;;
26106;SDS011;13866;50.748;12.630;2023-05-14T02:28:29;11.03;;;10.03;;
26106;SDS011;13866;50.748;12.630;2023-05-14T02:30:58;9.13;;;8.40;;
26106;SDS011;13866;50.748;12.630;2023-05-14T02:33:25;9.40;;;8.67;;
26106;SDS011;13866;50.748;12.630;2023-05-14T02:35:50;8.60;;;8.17;;
26106;SDS011;13866;50.748;12.630;2023-05-14T02:38:15;9.73;;;8.97;;
26106;SDS011;13866;50.748;12.630;2023-05-14T02:40:41;9.00;;;8.30;;
26106;SDS011;13866;50.748;12.630;2023-05-14T02:43:06;9.67;;;8.90;;
26106;SDS011;13866;50.748;12.630;2023-05-14T02:45:32;9.10;;;8.60;;
26106;SDS011;13866;50.748;12.630;2023-05-14T02:47:57;9.40;;;9.00;;
26106;SDS011;13866;50.748;12.630;2023-05-14T02:50:23;8.80;;;8.40;;
26106;SDS011;13866;50.748;12.630;2023-05-14T02:52:48;9.80;;;9.20;;
26106;SDS011;13866;50.748;12.630;2023-05-14T02:55:14;9.87;;;9.27;;
26106;SDS011;13866;50.748;12.630;2023-05-14T02:57:39;10.50;;;9.80;;
26106;SDS011;13866;50.748;12.630;2023-05-14T03:00:05;11.80;;;9.37;;
26106;SDS011;13866;50.748;12.630;2023-05-14T03:02:31;11.57;;;9.13;;
26106;SDS011;13866;50.748;12.630;2023-05-14T03:04:56;8.73;;;8.43;;
26106;SDS011;13866;50.748;12.630;2023-05-14T03:07:22;9.17;;;8.77;;
26106;SDS011;13866;50.748;12.630;2023-05-14T03:09:47;9.10;;;8.70;;
26106;SDS011;13866;50.748;12.630;2023-05-14T03:12:13;9.97;;;9.27;;
26106;SDS011;13866;50.748;12.630;2023-05-14T03:14:38;9.30;;;8.90;;
26106;SDS011;13866;50.748;12.630;2023-05-14T03:17:04;9.97;;;9.27;;
26106;SDS011;13866;50.748;12.630;2023-05-14T03:19:29;9.17;;;8.80;;
26106;SDS011;13866;50.748;12.630;2023-05-14T03:21:55;9.23;;;8.73;;
26106;SDS011;13866;50.748;12.630;2023-05-14T03:24:20;9.23;;;8.63;;
26106;SDS011;13866;50.748;12.630;2023-05-14T03:26:46;9.33;;;8.90;;
26106;SDS011;13866;50.748;12.630;2023-05-14T03:29:11;9.00;;;8.60;;
26106;SDS011;13866;50.748;12.630;2023-05-14T03:31:37;8.70;;;8.10;;
26106;SDS011;13866;50.748;12.630;2023-05-14T03:34:02;9.93;;;9.17;;
26106;SDS011;13866;50.748;12.630;2023-05-14T03:36:28;10.37;;;9.50;;
26106;SDS011;13866;50.748;12.630;2023-05-14T03:38:53;9.03;;;8.40;;
26106;SDS011;13866;50.748;12.630;2023-05-14T03:41:19;9.70;;;9.10;;
26106;SDS011;13866;50.748;12.630;2023-05-14T03:43:45;9.63;;;9.23;;
26106;SDS011;13866;50.748;12.630;2023-05-14T03:46:11;10.27;;;9.47;;
26106;SDS011;13866;50.748;12.630;2023-05-14T03:48:36;11.10;;;10.40;;
26106;SDS011;13866;50.748;12.630;2023-05-14T03:51:02;10.57;;;9.30;;
26106;SDS011;13866;50.748;12.630;2023-05-14T03:53:27;11.30;;;9.53;;
26106;SDS011;13866;50.748;12.630;2023-05-14T03:55:53;11.00;;;10.40;;
26106;SDS011;13866;50.748;12.630;2023-05-14T03:58:18;9.77;;;9.10;;
26106;SDS011;13866;50.748;12.630;2023-05-14T04:00:43;9.53;;;8.93;;
26106;SDS011;13866;50.748;12.630;2023-05-14T04:03:09;10.67;;;9.70;;
26106;SDS011;13866;50.748;12.630;2023-05-14T04:05:35;9.60;;;9.00;;
26106;SDS011;13866;50.748;12.630;2023-05-14T04:08:01;9.33;;;8.50;;
26106;SDS011;13866;50.748;12.630;2023-05-14T04:10:26;9.97;;;9.47;;
26106;SDS011;13866;50.748;12.630;2023-05-14T04:12:52;8.93;;;8.43;;
26106;SDS011;13866;50.748;12.630;2023-05-14T04:15:19;8.13;;;7.80;;
26106;SDS011;13866;50.748;12.630;2023-05-14T04:17:45;10.10;;;9.30;;
26106;SDS011;13866;50.748;12.630;2023-05-14T04:20:10;9.83;;;9.23;;
26106;SDS011;13866;50.748;12.630;2023-05-14T04:22:35;9.60;;;8.90;;
26106;SDS011;13866;50.748;12.630;2023-05-14T04:25:01;9.70;;;9.10;;
26106;SDS011;13866;50.748;12.630;2023-05-14T04:27:27;8.87;;;8.40;;
26106;SDS011;13866;50.748;12.630;2023-05-14T04:29:52;9.43;;;8.80;;
26106;SDS011;13866;50.748;12.630;2023-05-14T04:32:18;9.17;;;8.77;;
26106;SDS011;13866;50.748;12.630;2023-05-14T04:34:44;7.30;;;6.97;;
26106;SDS011;13866;50.748;12.630;2023-05-14T04:37:10;9.13;;;8.57;;
26106;SDS011;13866;50.748;12.630;2023-05-14T04:39:36;8.57;;;8.07;;
26106;SDS011;13866;50.748;12.630;2023-05-14T04:42:02;8.70;;;8.30;;
26106;SDS011;13866;50.748;12.630;2023-05-14T04:44:27;12.17;;;8.70;;
26106;SDS011;13866;50.748;12.630;2023-05-14T04:46:53;8.43;;;7.97;;
26106;SDS011;13866;50.748;12.630;2023-05-14T04:49:18;10.03;;;9.00;;
26106;SDS011;13866;50.748;12.630;2023-05-14T04:51:44;9.57;;;9.17;;
26106;SDS011;13866;50.748;12.630;2023-05-14T04:54:10;8.97;;;8.47;;
26106;SDS011;13866;50.748;12.630;2023-05-14T04:56:36;11.10;;;8.83;;
26106;SDS011;13866;50.748;12.630;2023-05-14T04:59:02;10.80;;;9.80;;
26106;SDS011;13866;50.748;12.630;2023-05-14T05:01:28;11.60;;;8.93;;
26106;SDS011;13866;50.748;12.630;2023-05-14T05:03:53;9.20;;;8.60;;
26106;SDS011;13866;50.748;12.630;2023-05-14T05:06:19;9.20;;;8.60;;
26106;SDS011;13866;50.748;12.630;2023-05-14T05:08:45;10.23;;;9.57;;
26106;SDS011;13866;50.748;12.630;2023-05-14T05:11:10;8.37;;;8.03;;
26106;SDS011;13866;50.748;12.630;2023-05-14T05:13:35;9.90;;;9.17;;
26106;SDS011;13866;50.748;12.630;2023-05-14T05:16:01;8.40;;;7.93;;
26106;SDS011;13866;50.748;12.630;2023-05-14T05:18:26;9.50;;;9.10;;
26106;SDS011;13866;50.748;12.630;2023-05-14T05:20:52;8.13;;;7.83;;
26106;SDS011;13866;50.748;12.630;2023-05-14T05:23:17;10.40;;;9.70;;
26106;SDS011;13866;50.748;12.630;2023-05-14T05:25:43;10.43;;;9.57;;
26106;SDS011;13866;50.748;12.630;2023-05-14T05:28:08;8.10;;;7.60;;
26106;SDS011;13866;50.748;12.630;2023-05-14T05:30:34;11.50;;;9.47;;
26106;SDS011;13866;50.748;12.630;2023-05-14T05:32:59;12.60;;;8.50;;
26106;SDS011;13866;50.748;12.630;2023-05-14T05:35:25;8.13;;;7.63;;
26106;SDS011;13866;50.748;12.630;2023-05-14T05:37:50;11.03;;;10.33;;
26106;SDS011;13866;50.748;12.630;2023-05-14T05:40:16;8.00;;;7.60;;
26106;SDS011;13866;50.748;12.630;2023-05-14T05:42:41;8.53;;;8.10;;
26106;SDS011;13866;50.748;12.630;2023-05-14T05:45:07;8.13;;;7.83;;
26106;SDS011;13866;50.748;12.630;2023-05-14T05:47:33;8.73;;;8.23;;
26106;SDS011;13866;50.748;12.630;2023-05-14T05:49:58;8.20;;;7.67;;
26106;SDS011;13866;50.748;12.630;2023-05-14T05:52:24;7.37;;;6.93;;
26106;SDS011;13866;50.748;12.630;2023-05-14T05:54:49;6.97;;;6.47;;
26106;SDS011;13866;50.748;12.630;2023-05-14T05:57:15;6.50;;;6.20;;
26106;SDS011;13866;50.748;12.630;2023-05-14T05:59:40;11.17;;;6.90;;
26106;SDS011;13866;50.748;12.630;2023-05-14T06:02:07;6.80;;;6.57;;
26106;SDS011;13866;50.748;12.630;2023-05-14T06:04:32;6.77;;;6.57;;
26106;SDS011;13866;50.748;12.630;2023-05-14T06:06:58;5.80;;;5.37;;
26106;SDS011;13866;50.748;12.630;2023-05-14T06:09:23;5.00;;;4.80;;
26106;SDS011;13866;50.748;12.630;2023-05-14T06:11:49;5.13;;;5.03;;
26106;SDS011;13866;50.748;12.630;2023-05-14T06:14:14;4.93;;;4.83;;
26106;SDS011;13866;50.748;12.630;2023-05-14T06:16:40;5.87;;;5.67;;
26106;SDS011;13866;50.748;12.630;2023-05-14T06:19:05;4.17;;;4.07;;
26106;SDS011;13866;50.748;12.630;2023-05-14T06:21:32;3.83;;;3.70;;
26106;SDS011;13866;50.748;12.630;2023-05-14T06:23:57;4.30;;;4.20;;
26106;SDS011;13866;50.748;12.630;2023-05-14T06:26:23;5.07;;;4.87;;
26106;SDS011;13866;50.748;12.630;2023-05-14T06:28:48;5.03;;;4.47;;
26106;SDS011;13866;50.748;12.630;2023-05-14T06:31:14;4.20;;;4.10;;
26106;SDS011;13866;50.748;12.630;2023-05-14T06:33:39;4.27;;;4.17;;
26106;SDS011;13866;50.748;12.630;2023-05-14T06:36:05;3.70;;;3.70;;
26106;SDS011;13866;50.748;12.630;2023-05-14T06:38:31;3.17;;;3.17;;
26106;SDS011;13866;50.748;12.630;2023-05-14T06:40:57;5.07;;;4.97;;
26106;SDS011;13866;50.748;12.630;2023-05-14T06:43:22;3.60;;;3.50;;
26106;SDS011;13866;50.748;12.630;2023-05-14T06:45:48;4.00;;;3.90;;
26106;SDS011;13866;50.748;12.630;2023-05-14T06:48:14;4.20;;;4.10;;
26106;SDS011;13866;50.748;12.630;2023-05-14T06:50:42;3.30;;;3.20;;
26106;SDS011;13866;50.748;12.630;2023-05-14T06:53:08;4.70;;;4.60;;
26106;SDS011;13866;50.748;12.630;2023-05-14T06:55:34;4.50;;;4.40;;
26106;SDS011;13866;50.748;12.630;2023-05-14T06:57:59;4.03;;;3.93;;
26106;SDS011;13866;50.748;12.630;2023-05-14T07:00:25;4.80;;;4.70;;
26106;SDS011;13866;50.748;12.630;2023-05-14T07:02:50;4.50;;;4.40;;
26106;SDS011;13866;50.748;12.630;2023-05-14T07:05:16;4.20;;;4.00;;
26106;SDS011;13866;50.748;12.630;2023-05-14T07:07:41;4.50;;;3.63;;
26106;SDS011;13866;50.748;12.630;2023-05-14T07:10:07;5.50;;;4.43;;
26106;SDS011;13866;50.748;12.630;2023-05-14T07:12:32;3.70;;;3.60;;
26106;SDS011;13866;50.748;12.630;2023-05-14T07:14:58;3.73;;;3.43;;
26106;SDS011;13866;50.748;12.630;2023-05-14T07:17:23;4.20;;;4.10;;
26106;SDS011;13866;50.748;12.630;2023-05-14T07:19:49;4.23;;;4.13;;
26106;SDS011;13866;50.748;12.630;2023-05-14T07:22:15;3.87;;;3.77;;
26106;SDS011;13866;50.748;12.630;2023-05-14T07:24:40;5.43;;;5.10;;
26106;SDS011;13866;50.748;12.630;2023-05-14T07:27:06;3.53;;;3.50;;
26106;SDS011;13866;50.748;12.630;2023-05-14T07:29:32;4.30;;;4.30;;
26106;SDS011;13866;50.748;12.630;2023-05-14T07:31:59;4.23;;;4.03;;
26106;SDS011;13866;50.748;12.630;2023-05-14T07:34:24;3.87;;;3.83;;
26106;SDS011;13866;50.748;12.630;2023-05-14T07:36:50;4.30;;;4.20;;
26106;SDS011;13866;50.748;12.630;2023-05-14T07:39:16;3.50;;;3.50;;
26106;SDS011;13866;50.748;12.630;2023-05-14T07:41:41;3.60;;;3.60;;
26106;SDS011;13866;50.748;12.630;2023-05-14T07:44:07;3.63;;;3.40;;
26106;SDS011;13866;50.748;12.630;2023-05-14T07:46:32;3.77;;;3.60;;
26106;SDS011;13866;50.748;12.630;2023-05-14T07:48:58;3.63;;;3.60;;
26106;SDS011;13866;50.748;12.630;2023-05-14T07:51:23;4.27;;;4.17;;
26106;SDS011;13866;50.748;12.630;2023-05-14T07:53:52;4.47;;;4.37;;
26106;SDS011;13866;50.748;12.630;2023-05-14T07:56:18;4.30;;;4.17;;
26106;SDS011;13866;50.748;12.630;2023-05-14T07:58:43;5.10;;;5.00;;
26106;SDS011;13866;50.748;12.630;2023-05-14T08:01:09;4.20;;;4.17;;
26106;SDS011;13866;50.748;12.630;2023-05-14T08:03:36;5.83;;;5.67;;
26106;SDS011;13866;50.748;12.630;2023-05-14T08:06:02;4.80;;;4.63;;
26106;SDS011;13866;50.748;12.630;2023-05-14T08:08:28;5.57;;;5.17;;
26106;SDS011;13866;50.748;12.630;2023-05-14T08:10:54;7.60;;;5.20;;
26106;SDS011;13866;50.748;12.630;2023-05-14T08:13:19;5.50;;;5.30;;
26106;SDS011;13866;50.748;12.630;2023-05-14T08:15:45;4.73;;;4.63;;
26106;SDS011;13866;50.748;12.630;2023-05-14T08:18:11;5.60;;;5.13;;
26106;SDS011;13866;50.748;12.630;2023-05-14T08:20:37;4.47;;;4.47;;
26106;SDS011;13866;50.748;12.630;2023-05-14T08:23:02;6.57;;;6.17;;
26106;SDS011;13866;50.748;12.630;2023-05-14T08:25:28;4.90;;;4.70;;
26106;SDS011;13866;50.748;12.630;2023-05-14T08:27:53;6.17;;;5.60;;
26106;SDS011;13866;50.748;12.630;2023-05-14T08:30:19;4.97;;;4.77;;
26106;SDS011;13866;50.748;12.630;2023-05-14T08:32:45;4.80;;;4.70;;
26106;SDS011;13866;50.748;12.630;2023-05-14T08:35:11;4.67;;;4.37;;
26106;SDS011;13866;50.748;12.630;2023-05-14T08:37:36;5.10;;;5.00;;
26106;SDS011;13866;50.748;12.630;2023-05-14T08:40:02;5.70;;;5.50;;
26106;SDS011;13866;50.748;12.630;2023-05-14T08:42:28;4.10;;;4.00;;
26106;SDS011;13866;50.748;12.630;2023-05-14T08:44:58;4.60;;;4.50;;
26106;SDS011;13866;50.748;12.630;2023-05-14T08:47:28;4.70;;;4.30;;
26106;SDS011;13866;50.748;12.630;2023-05-14T08:50:04;4.67;;;4.57;;
26106;SDS011;13866;50.748;12.630;2023-05-14T08:52:32;4.03;;;3.83;;
26106;SDS011;13866;50.748;12.630;2023-05-14T08:54:59;2.70;;;2.70;;
26106;SDS011;13866;50.748;12.630;2023-05-14T08:57:26;3.20;;;3.20;;
26106;SDS011;13866;50.748;12.630;2023-05-14T08:59:54;3.00;;;3.00;;
26106;SDS011;13866;50.748;12.630;2023-05-14T09:02:20;3.20;;;3.20;;
26106;SDS011;13866;50.748;12.630;2023-05-14T09:04:49;3.10;;;3.10;;
26106;SDS011;13866;50.748;12.630;2023-05-14T09:07:19;4.20;;;4.10;;
26106;SDS011;13866;50.748;12.630;2023-05-14T09:09:45;3.40;;;3.40;;
26106;SDS011;13866;50.748;12.630;2023-05-14T09:12:11;3.90;;;3.60;;
26106;SDS011;13866;50.748;12.630;2023-05-14T09:14:37;3.90;;;3.80;;
26106;SDS011;13866;50.748;12.630;2023-05-14T09:17:02;3.40;;;3.40;;
26106;SDS011;13866;50.748;12.630;2023-05-14T09:19:28;4.80;;;4.70;;
26106;SDS011;13866;50.748;12.630;2023-05-14T09:21:55;4.30;;;4.20;;
26106;SDS011;13866;50.748;12.630;2023-05-14T09:24:23;3.90;;;3.80;;
26106;SDS011;13866;50.748;12.630;2023-05-14T09:26:51;4.00;;;4.00;;
26106;SDS011;13866;50.748;12.630;2023-05-14T09:29:18;3.90;;;3.80;;
26106;SDS011;13866;50.748;12.630;2023-05-14T09:31:43;4.80;;;4.70;;
26106;SDS011;13866;50.748;12.630;2023-05-14T09:34:09;5.67;;;5.40;;
26106;SDS011;13866;50.748;12.630;2023-05-14T09:36:35;5.67;;;5.37;;
26106;SDS011;13866;50.748;12.630;2023-05-14T09:39:04;6.97;;;4.80;;
26106;SDS011;13866;50.748;12.630;2023-05-14T09:41:29;3.77;;;3.77;;
26106;SDS011;13866;50.748;12.630;2023-05-14T09:43:56;4.60;;;4.50;;
26106;SDS011;13866;50.748;12.630;2023-05-14T09:46:21;4.37;;;4.27;;
26106;SDS011;13866;50.748;12.630;2023-05-14T09:48:47;3.87;;;3.87;;
26106;SDS011;13866;50.748;12.630;2023-05-14T09:51:13;5.00;;;4.90;;
26106;SDS011;13866;50.748;12.630;2023-05-14T09:53:41;4.60;;;4.50;;
26106;SDS011;13866;50.748;12.630;2023-05-14T09:56:08;4.20;;;4.10;;
26106;SDS011;13866;50.748;12.630;2023-05-14T09:58:34;4.10;;;4.00;;
26106;SDS011;13866;50.748;12.630;2023-05-14T10:01:00;7.30;;;4.53;;
26106;SDS011;13866;50.748;12.630;2023-05-14T10:03:26;3.93;;;3.93;;
26106;SDS011;13866;50.748;12.630;2023-05-14T10:05:54;4.47;;;4.27;;
26106;SDS011;13866;50.748;12.630;2023-05-14T10:08:25;5.60;;;5.40;;
26106;SDS011;13866;50.748;12.630;2023-05-14T10:10:54;3.80;;;3.80;;
26106;SDS011;13866;50.748;12.630;2023-05-14T10:13:22;3.90;;;3.77;;
26106;SDS011;13866;50.748;12.630;2023-05-14T10:16:00;4.20;;;4.10;;
26106;SDS011;13866;50.748;12.630;2023-05-14T10:18:38;4.03;;;4.03;;
26106;SDS011;13866;50.748;12.630;2023-05-14T10:21:06;3.90;;;3.90;;
26106;SDS011;13866;50.748;12.630;2023-05-14T10:23:33;41.00;;;5.10;;
26106;SDS011;13866;50.748;12.630;2023-05-14T10:26:02;4.40;;;4.30;;
26106;SDS011;13866;50.748;12.630;2023-05-14T10:28:28;4.37;;;3.97;;
26106;SDS011;13866;50.748;12.630;2023-05-14T10:30:54;3.10;;;3.10;;
26106;SDS011;13866;50.748;12.630;2023-05-14T10:33:20;4.13;;;4.07;;
26106;SDS011;13866;50.748;12.630;2023-05-14T10:35:55;3.90;;;3.60;;
26106;SDS011;13866;50.748;12.630;2023-05-14T10:38:30;4.30;;;4.10;;
26106;SDS011;13866;50.748;12.630;2023-05-14T10:40:58;3.90;;;3.90;;
26106;SDS011;13866;50.748;12.630;2023-05-14T10:43:26;4.00;;;3.90;;
26106;SDS011;13866;50.748;12.630;2023-05-14T10:45:54;3.73;;;3.63;;
26106;SDS011;13866;50.748;12.630;2023-05-14T10:48:20;3.70;;;3.50;;
26106;SDS011;13866;50.748;12.630;2023-05-14T10:50:46;8.03;;;4.17;;
26106;SDS011;13866;50.748;12.630;2023-05-14T10:53:13;4.33;;;4.00;;
26106;SDS011;13866;50.748;12.630;2023-05-14T10:55:40;4.10;;;4.00;;
26106;SDS011;13866;50.748;12.630;2023-05-14T10:58:06;3.77;;;3.43;;
26106;SDS011;13866;50.748;12.630;2023-05-14T11:00:34;3.33;;;3.30;;
26106;SDS011;13866;50.748;12.630;2023-05-14T11:03:05;3.37;;;3.27;;
26106;SDS011;13866;50.748;12.630;2023-05-14T11:05:31;3.40;;;3.30;;
26106;SDS011;13866;50.748;12.630;2023-05-14T11:07:59;3.27;;;3.27;;
26106;SDS011;13866;50.748;12.630;2023-05-14T11:10:29;5.53;;;4.10;;
26106;SDS011;13866;50.748;12.630;2023-05-14T11:12:56;18.73;;;4.07;;
26106;SDS011;13866;50.748;12.630;2023-05-14T11:15:23;4.70;;;4.60;;
26106;SDS011;13866;50.748;12.630;2023-05-14T11:17:50;4.00;;;4.00;;
26106;SDS011;13866;50.748;12.630;2023-05-14T11:20:17;4.00;;;3.70;;
26106;SDS011;13866;50.748;12.630;2023-05-14T11:22:44;3.43;;;3.43;;
26106;SDS011;13866;50.748;12.630;2023-05-14T11:25:11;3.27;;;3.13;;
26106;SDS011;13866;50.748;12.630;2023-05-14T11:27:42;2.80;;;2.60;;
26106;SDS011;13866;50.748;12.630;2023-05-14T11:30:12;2.80;;;2.80;;
26106;SDS011;13866;50.748;12.630;2023-05-14T11:32:38;3.30;;;3.00;;
26106;SDS011;13866;50.748;12.630;2023-05-14T11:35:04;3.20;;;3.20;;
26106;SDS011;13866;50.748;12.630;2023-05-14T11:37:29;3.80;;;3.60;;
26106;SDS011;13866;50.748;12.630;2023-05-14T11:39:58;3.87;;;3.87;;
26106;SDS011;13866;50.748;12.630;2023-05-14T11:42:25;4.03;;;3.93;;
26106;SDS011;13866;50.748;12.630;2023-05-14T11:44:50;4.83;;;4.73;;
26106;SDS011;13866;50.748;12.630;2023-05-14T11:47:18;4.00;;;3.90;;
26106;SDS011;13866;50.748;12.630;2023-05-14T11:49:44;2.60;;;2.50;;
26106;SDS011;13866;50.748;12.630;2023-05-14T11:52:12;5.00;;;2.50;;
26106;SDS011;13866;50.748;12.630;2023-05-14T11:54:39;3.53;;;3.37;;
26106;SDS011;13866;50.748;12.630;2023-05-14T11:57:06;3.20;;;3.10;;
26106;SDS011;13866;50.748;12.630;2023-05-14T11:59:43;3.53;;;3.47;;
26106;SDS011;13866;50.748;12.630;2023-05-14T12:02:14;3.10;;;3.00;;
26106;SDS011;13866;50.748;12.630;2023-05-14T12:04:41;5.37;;;4.97;;
26106;SDS011;13866;50.748;12.630;2023-05-14T12:07:08;3.13;;;3.03;;
26106;SDS011;13866;50.748;12.630;2023-05-14T12:09:37;3.20;;;3.20;;
26106;SDS011;13866;50.748;12.630;2023-05-14T12:12:07;4.50;;;2.90;;
26106;SDS011;13866;50.748;12.630;2023-05-14T12:14:39;2.50;;;2.50;;
26106;SDS011;13866;50.748;12.630;2023-05-14T12:19:45;2.70;;;2.70;;
26106;SDS011;13866;50.748;12.630;2023-05-14T12:22:13;3.07;;;2.97;;
26106;SDS011;13866;50.748;12.630;2023-05-14T12:24:41;4.63;;;2.97;;
26106;SDS011;13866;50.748;12.630;2023-05-14T12:27:08;3.07;;;2.97;;
26106;SDS011;13866;50.748;12.630;2023-05-14T12:29:37;3.70;;;3.60;;
26106;SDS011;13866;50.748;12.630;2023-05-14T12:32:06;3.70;;;3.50;;
26106;SDS011;13866;50.748;12.630;2023-05-14T12:34:33;3.00;;;3.00;;
26106;SDS011;13866;50.748;12.630;2023-05-14T12:36:59;3.50;;;3.20;;
26106;SDS011;13866;50.748;12.630;2023-05-14T12:39:25;2.90;;;2.73;;
26106;SDS011;13866;50.748;12.630;2023-05-14T12:41:50;3.03;;;3.03;;
26106;SDS011;13866;50.748;12.630;2023-05-14T12:44:16;3.60;;;3.40;;
26106;SDS011;13866;50.748;12.630;2023-05-14T12:46:41;3.27;;;3.17;;
26106;SDS011;13866;50.748;12.630;2023-05-14T12:49:07;4.67;;;4.47;;
26106;SDS011;13866;50.748;12.630;2023-05-14T12:51:32;7.30;;;7.00;;
26106;SDS011;13866;50.748;12.630;2023-05-14T12:53:58;3.13;;;3.03;;
26106;SDS011;13866;50.748;12.630;2023-05-14T12:56:23;3.30;;;3.20;;
26106;SDS011;13866;50.748;12.630;2023-05-14T12:58:52;3.33;;;3.27;;
26106;SDS011;13866;50.748;12.630;2023-05-14T13:01:19;3.90;;;3.70;;
26106;SDS011;13866;50.748;12.630;2023-05-14T13:03:45;3.40;;;3.23;;
26106;SDS011;13866;50.748;12.630;2023-05-14T13:06:11;3.53;;;3.43;;
26106;SDS011;13866;50.748;12.630;2023-05-14T13:08:36;3.50;;;3.50;;
26106;SDS011;13866;50.748;12.630;2023-05-14T13:11:02;9.70;;;3.40;;
26106;SDS011;13866;50.748;12.630;2023-05-14T13:13:27;3.30;;;3.10;;
26106;SDS011;13866;50.748;12.630;2023-05-14T13:15:53;3.10;;;3.10;;
26106;SDS011;13866;50.748;12.630;2023-05-14T13:18:19;3.13;;;3.03;;
26106;SDS011;13866;50.748;12.630;2023-05-14T13:20:45;9.70;;;9.00;;
26106;SDS011;13866;50.748;12.630;2023-05-14T13:23:11;6.63;;;6.13;;
26106;SDS011;13866;50.748;12.630;2023-05-14T13:25:37;3.47;;;3.33;;
26106;SDS011;13866;50.748;12.630;2023-05-14T13:28:03;3.63;;;3.20;;
26106;SDS011;13866;50.748;12.630;2023-05-14T13:30:28;4.90;;;4.30;;
26106;SDS011;13866;50.748;12.630;2023-05-14T13:32:55;3.70;;;3.60;;
26106;SDS011;13866;50.748;12.630;2023-05-14T13:35:21;3.50;;;3.40;;
26106;SDS011;13866;50.748;12.630;2023-05-14T13:37:47;3.67;;;3.67;;
26106;SDS011;13866;50.748;12.630;2023-05-14T13:40:12;7.50;;;7.20;;
26106;SDS011;13866;50.748;12.630;2023-05-14T13:42:38;5.00;;;4.70;;
26106;SDS011;13866;50.748;12.630;2023-05-14T13:45:04;6.70;;;6.37;;
26106;SDS011;13866;50.748;12.630;2023-05-14T13:47:30;7.07;;;6.87;;
26106;SDS011;13866;50.748;12.630;2023-05-14T13:49:56;6.30;;;6.00;;
26106;SDS011;13866;50.748;12.630;2023-05-14T13:52:22;7.53;;;7.03;;
26106;SDS011;13866;50.748;12.630;2023-05-14T13:54:47;10.97;;;10.20;;
26106;SDS011;13866;50.748;12.630;2023-05-14T13:57:13;6.40;;;6.00;;
26106;SDS011;13866;50.748;12.630;2023-05-14T13:59:39;4.07;;;4.07;;
26106;SDS011;13866;50.748;12.630;2023-05-14T14:02:04;4.97;;;4.60;;
26106;SDS011;13866;50.748;12.630;2023-05-14T14:04:31;5.10;;;4.07;;
26106;SDS011;13866;50.748;12.630;2023-05-14T14:06:56;4.80;;;4.60;;
26106;SDS011;13866;50.748;12.630;2023-05-14T14:09:22;4.87;;;4.77;;
26106;SDS011;13866;50.748;12.630;2023-05-14T14:11:48;5.23;;;4.73;;
26106;SDS011;13866;50.748;12.630;2023-05-14T14:14:14;4.97;;;4.77;;
26106;SDS011;13866;50.748;12.630;2023-05-14T14:16:39;5.80;;;5.50;;
26106;SDS011;13866;50.748;12.630;2023-05-14T14:19:05;6.20;;;5.90;;
26106;SDS011;13866;50.748;12.630;2023-05-14T14:21:30;5.43;;;5.20;;
26106;SDS011;13866;50.748;12.630;2023-05-14T14:23:56;4.70;;;4.60;;
26106;SDS011;13866;50.748;12.630;2023-05-14T14:26:22;5.20;;;5.10;;
26106;SDS011;13866;50.748;12.630;2023-05-14T14:28:47;7.20;;;5.20;;
26106;SDS011;13866;50.748;12.630;2023-05-14T14:31:13;8.17;;;7.27;;
26106;SDS011;13866;50.748;12.630;2023-05-14T14:33:40;6.90;;;6.50;;
26106;SDS011;13866;50.748;12.630;2023-05-14T14:36:06;5.67;;;5.47;;
26106;SDS011;13866;50.748;12.630;2023-05-14T14:38:32;4.97;;;4.77;;